Time;durP1;ratioP1;P1;durP2;ratioP2;P2;SDS_P1;SDS_P2;PMS_P1;PMS_P2;Temp;Humidity;BMP_temperature;BMP_pressure;BME280_temperature;BME280_humidity;BME280_pressure;Samples;Min_cycle;Max_cycle;Signal;HPM_P1;HPM_P2
2022/03/23 00:02:25;;;;;;;;;50.00;40.00;;;;;15.03;39.05;102356.81;4979871;28;45329;-70
2022/03/23 00:04:53;;;;;;;;;45.00;37.75;;;;;15.21;39.02;102392.25;4977535;28;46144;-70
2022/03/23 00:07:20;;;;;;;;;48.50;39.50;;;;;15.19;38.75;102394.97;4978622;28;45316;-70
2022/03/23 00:09:46;;;;;;;;;47.75;38.25;;;;;15.04;39.17;102377.41;4968988;28;45467;-70
2022/03/23 00:12:11;;;;;;;;;45.50;39.00;;;;;15.00;39.40;102367.63;4976650;28;45523;-70
2022/03/23 00:14:37;;;;;;;;;44.50;36.75;;;;;15.16;39.19;102409.38;4969544;28;45332;-70
2022/03/23 00:17:03;;;;;;;;;45.75;37.50;;;;;14.97;39.01;102384.75;4975024;28;45763;-70
2022/03/23 00:19:29;;;;;;;;;52.75;43.50;;;;;15.15;39.33;102410.31;4979826;28;45355;-70
2022/03/23 00:21:54;;;;;;;;;48.50;39.00;;;;;15.12;39.47;102409.50;4978271;28;45422;-70
2022/03/23 00:24:20;;;;;;;;;46.25;37.50;;;;;14.97;39.59;102389.25;4978761;28;45335;-70
2022/03/23 00:26:45;;;;;;;;;53.00;40.00;;;;;15.06;39.62;102410.53;4979468;28;45312;-70
2022/03/23 00:29:11;;;;;;;;;46.50;38.75;;;;;15.03;39.53;102412.41;4979867;28;45381;-70
2022/03/23 00:31:36;;;;;;;;;44.50;37.25;;;;;14.96;39.92;102409.00;4979346;28;45550;-70
2022/03/23 00:34:02;;;;;;;;;48.75;39.75;;;;;14.94;39.61;102408.16;4978406;28;45412;-70
2022/03/23 00:36:28;;;;;;;;;48.50;39.75;;;;;14.98;39.76;102418.81;4970190;28;45242;-70
2022/03/23 00:38:53;;;;;;;;;53.75;41.75;;;;;14.66;39.47;102373.84;4976152;28;45416;-70
2022/03/23 00:41:19;;;;;;;;;47.25;37.75;;;;;14.88;39.60;102411.84;4983179;28;45351;-70
2022/03/23 00:43:45;;;;;;;;;52.50;40.50;;;;;14.62;39.88;102364.09;4982529;28;45488;-70
2022/03/23 00:46:11;;;;;;;;;49.00;40.25;;;;;14.59;39.96;102378.47;4982910;28;45471;-70
2022/03/23 00:48:36;;;;;;;;;51.25;41.75;;;;;14.61;39.89;102378.44;4981962;28;45446;-70
2022/03/23 00:51:01;;;;;;;;;51.00;41.00;;;;;14.71;40.08;102404.19;4978200;28;45532;-70
2022/03/23 00:53:27;;;;;;;;;53.75;45.00;;;;;14.76;39.86;102415.72;4973320;28;45360;-70
2022/03/23 00:55:53;;;;;;;;;52.75;41.50;;;;;14.53;40.13;102381.25;4982511;28;45492;-70
2022/03/23 00:58:18;;;;;;;;;49.00;40.25;;;;;14.70;40.20;102417.66;4980719;28;45561;-70
2022/03/23 01:00:45;;;;;;;;;44.00;36.25;;;;;14.71;39.88;102417.63;4997549;28;45608;-70
2022/03/23 01:03:11;;;;;;;;;44.25;38.00;;;;;14.63;39.74;102409.75;4980995;28;48190;-70
2022/03/23 01:05:37;;;;;;;;;46.25;37.75;;;;;14.59;39.67;102399.09;4982394;28;45313;-70
2022/03/23 01:08:03;;;;;;;;;46.75;39.00;;;;;14.42;40.00;102375.28;4981565;28;45281;-70
2022/03/23 01:10:29;;;;;;;;;40.25;36.00;;;;;14.49;39.69;102387.63;4976943;28;45326;-70
2022/03/23 01:12:55;;;;;;;;;46.25;36.50;;;;;14.50;39.53;102388.50;4981865;28;45645;-70
2022/03/23 01:15:20;;;;;;;;;40.00;32.75;;;;;14.65;39.83;102417.78;4982230;28;45476;-70
2022/03/23 01:17:46;;;;;;;;;42.25;37.25;;;;;14.38;39.67;102377.16;4981262;28;45410;-70
2022/03/23 01:20:14;;;;;;;;;47.00;39.25;;;;;14.55;39.54;102410.78;4982691;28;45262;-70
2022/03/23 01:22:40;;;;;;;;;41.75;33.50;;;;;14.46;39.60;102388.56;4981994;28;45579;-70
2022/03/23 01:25:08;;;;;;;;;46.25;38.25;;;;;14.57;39.46;102403.59;4982254;28;45784;-70
2022/03/23 01:27:35;;;;;;;;;41.25;33.00;;;;;14.67;39.19;102418.63;4972765;28;45500;-70
2022/03/23 01:30:02;;;;;;;;;39.25;35.25;;;;;14.64;38.74;102413.31;4981908;28;45531;-70
2022/03/23 01:32:29;;;;;;;;;34.00;31.25;;;;;14.51;38.73;102399.22;4981862;28;45351;-70
2022/03/23 01:34:54;;;;;;;;;42.75;34.50;;;;;14.59;39.00;102413.41;4982258;28;45646;-70
2022/03/23 01:37:20;;;;;;;;;44.75;36.50;;;;;14.54;38.56;102401.84;4981151;28;46793;-70
2022/03/23 01:39:45;;;;;;;;;45.25;38.00;;;;;14.39;38.66;102386.09;4981976;28;45241;-70
2022/03/23 01:42:11;;;;;;;;;41.75;36.00;;;;;14.47;38.87;102400.22;4981710;28;45582;-70
2022/03/23 01:44:36;;;;;;;;;39.00;33.00;;;;;14.58;38.80;102414.31;4977164;28;45421;-70
2022/03/23 01:47:11;;;;;;;;;40.50;34.25;;;;;14.42;38.53;102396.75;4967940;28;45410;-70
2022/03/23 01:49:41;;;;;;;;;37.75;33.25;;;;;14.50;38.26;102404.63;4977974;28;45637;-70
2022/03/23 01:52:10;;;;;;;;;45.00;36.50;;;;;14.22;38.38;102363.16;4980205;28;45498;-70
2022/03/23 01:54:37;;;;;;;;;38.50;34.50;;;;;14.48;38.42;102407.34;4967353;28;45373;-70
2022/03/23 01:57:05;;;;;;;;;38.00;33.75;;;;;14.24;38.67;102369.38;4969924;28;45892;-70
2022/03/23 01:59:30;;;;;;;;;39.25;34.75;;;;;14.26;38.64;102375.59;4977893;28;45636;-70
2022/03/23 02:01:56;;;;;;;;;42.50;36.50;;;;;14.46;38.36;102414.56;4979829;28;45442;-70
2022/03/23 02:04:22;;;;;;;;;42.75;36.00;;;;;14.20;38.63;102367.69;4981619;28;45522;-70
2022/03/23 02:06:48;;;;;;;;;46.00;36.50;;;;;14.27;38.44;102380.06;4980797;28;45498;-70
2022/03/23 02:09:17;;;;;;;;;45.50;36.50;;;;;14.34;38.86;102399.59;4980907;28;45471;-70
2022/03/23 02:11:44;;;;;;;;;46.25;34.25;;;;;14.20;38.70;102380.22;4981506;28;46311;-70
2022/03/23 02:14:09;;;;;;;;;40.00;34.25;;;;;14.11;38.79;102361.63;4979683;28;45377;-70
2022/03/23 02:16:46;;;;;;;;;46.75;36.75;;;;;14.32;38.56;102398.75;4981360;28;45495;-70
2022/03/23 02:19:12;;;;;;;;;50.25;40.25;;;;;14.06;38.64;102361.72;4980279;28;45518;-70
2022/03/23 02:21:42;;;;;;;;;39.50;35.50;;;;;14.16;38.78;102378.53;4979897;28;46220;-70
2022/03/23 02:24:09;;;;;;;;;47.00;37.75;;;;;14.34;38.23;102401.41;4977779;28;45363;-70
2022/03/23 02:26:35;;;;;;;;;39.25;34.25;;;;;14.29;38.56;102395.25;4981651;28;45480;-70
2022/03/23 02:29:01;;;;;;;;;48.25;38.00;;;;;14.27;38.48;102397.97;4981061;28;45434;-70
2022/03/23 02:31:26;;;;;;;;;44.75;36.75;;;;;14.23;38.72;102399.84;4981241;28;45398;-70
2022/03/23 02:33:52;;;;;;;;;40.00;34.50;;;;;14.26;38.67;102398.88;4979869;28;45363;-70
2022/03/23 02:36:18;;;;;;;;;46.25;37.00;;;;;13.88;38.51;102339.72;4968002;28;45495;-70
2022/03/23 02:38:43;;;;;;;;;46.00;37.25;;;;;14.10;38.83;102379.53;4975385;28;45499;-70
2022/03/23 02:41:09;;;;;;;;;45.25;36.75;;;;;14.03;38.41;102369.81;4980211;28;45432;-70
2022/03/23 02:43:35;;;;;;;;;24.25;23.50;;;;;14.09;38.22;102391.19;4970934;28;45408;-70
2022/03/23 02:46:02;;;;;;;;;42.75;36.25;;;;;14.09;38.50;102394.75;4978223;28;45464;-70
2022/03/23 02:48:28;;;;;;;;;42.00;36.00;;;;;14.15;38.21;102414.34;4980946;28;45170;-70
2022/03/23 02:50:53;;;;;;;;;42.75;35.75;;;;;14.09;38.26;102401.94;4978295;28;46548;-70
2022/03/23 03:02:01;;;;;;;;;40.25;36.25;;;;;13.90;37.62;102417.53;4969306;28;45520;-70
2022/03/23 03:04:26;;;;;;;;;39.00;34.50;;;;;13.92;38.03;102418.38;4966093;28;45748;-70
2022/03/23 03:06:51;;;;;;;;;41.75;33.50;;;;;13.77;38.16;102403.47;4979158;28;45514;-70
2022/03/23 03:09:17;;;;;;;;;39.50;31.50;;;;;13.94;37.86;102431.78;4969109;28;45299;-69
2022/03/23 03:11:43;;;;;;;;;34.25;32.00;;;;;13.89;37.82;102434.53;4980594;28;45991;-70
2022/03/23 03:14:10;;;;;;;;;37.75;33.00;;;;;13.77;37.88;102427.63;4966071;28;45567;-69
2022/03/23 03:16:36;;;;;;;;;36.00;32.00;;;;;13.67;37.71;102418.84;4980544;28;45447;-70
2022/03/23 03:19:04;;;;;;;;;37.00;32.00;;;;;13.59;37.75;102426.16;4980569;28;45442;-70
2022/03/23 03:21:30;;;;;;;;;40.75;33.75;;;;;13.56;37.71;102428.00;4979348;28;45472;-69
2022/03/23 03:23:55;;;;;;;;;33.75;28.75;;;;;13.32;37.69;102408.75;4977485;28;45375;-70
2022/03/23 03:26:21;;;;;;;;;37.75;34.00;;;;;13.52;37.81;102454.00;4962334;28;45255;-70
2022/03/23 03:28:49;;;;;;;;;39.25;33.00;;;;;13.21;38.08;102405.34;4980416;28;45289;-70
2022/03/23 03:31:15;;;;;;;;;38.50;34.75;;;;;13.38;37.91;102439.94;4980244;28;45641;-70
2022/03/23 03:33:41;;;;;;;;;36.00;33.00;;;;;13.19;37.96;102410.72;4978347;28;45487;-70
2022/03/23 03:36:07;;;;;;;;;36.25;32.75;;;;;13.39;38.13;102458.69;4980219;28;45544;-69
2022/03/23 03:38:34;;;;;;;;;32.75;30.50;;;;;13.39;38.29;102460.50;4979063;28;45458;-69
2022/03/23 03:40:59;;;;;;;;;33.75;32.00;;;;;13.32;38.21;102444.50;4978771;28;46502;-70
2022/03/23 03:43:26;;;;;;;;;33.50;31.75;;;;;13.21;38.37;102429.47;4972869;28;45360;-70
2022/03/23 03:45:52;;;;;;;;;36.00;31.00;;;;;13.19;38.29;102442.00;4974997;28;45406;-69
2022/03/23 03:48:18;;;;;;;;;36.00;32.25;;;;;13.27;38.12;102454.38;4973213;28;45669;-69
2022/03/23 03:50:44;;;;;;;;;31.75;31.25;;;;;13.10;38.26;102429.66;4973980;28;46258;-69
2022/03/23 03:53:10;;;;;;;;;29.00;26.50;;;;;13.20;38.11;102459.84;4980169;28;45344;-70
2022/03/23 03:55:36;;;;;;;;;32.75;31.50;;;;;13.17;38.18;102458.13;4979062;28;45349;-70
2022/03/23 03:58:03;;;;;;;;;38.25;32.75;;;;;13.07;38.13;102443.09;4979208;28;45388;-69
2022/03/23 04:00:29;;;;;;;;;34.25;31.75;;;;;13.19;37.97;102468.84;4979879;28;46369;-70
2022/03/23 04:02:54;;;;;;;;;36.50;32.25;;;;;13.04;37.95;102449.38;4978617;28;45740;-69
2022/03/23 04:05:20;;;;;;;;;36.25;33.00;;;;;13.13;37.91;102470.69;4980101;28;45344;-70
2022/03/23 04:07:45;;;;;;;;;28.00;27.50;;;;;13.16;38.31;102472.44;4978144;28;45218;-70
2022/03/23 04:10:10;;;;;;;;;30.25;27.00;;;;;12.97;38.23;102431.63;4976226;28;45237;-69
2022/03/23 04:12:36;;;;;;;;;32.75;29.00;;;;;12.87;38.62;102424.66;4975028;28;45298;-69
2022/03/23 04:15:02;;;;;;;;;35.00;29.50;;;;;13.06;37.78;102457.41;4982155;28;45719;-69
2022/03/23 04:17:28;;;;;;;;;34.50;32.00;;;;;13.05;37.87;102464.56;4983024;28;45459;-70
2022/03/23 04:19:53;;;;;;;;;26.50;26.00;;;;;12.97;38.07;102453.06;4981575;28;46358;-69
2022/03/23 04:22:19;;;;;;;;;28.25;27.25;;;;;13.09;38.00;102482.38;4983304;28;45707;-70
2022/03/23 04:24:44;;;;;;;;;24.75;23.75;;;;;13.02;38.12;102469.97;4981951;28;45760;-69
2022/03/23 04:27:09;;;;;;;;;29.50;29.00;;;;;13.10;37.84;102491.31;4998470;28;45620;-69
2022/03/23 04:29:35;;;;;;;;;28.25;26.25;;;;;12.96;38.20;102470.06;4980773;28;45390;-70
2022/03/23 04:32:00;;;;;;;;;31.50;25.75;;;;;13.03;38.27;102484.25;4982826;28;45507;-69
2022/03/23 04:34:26;;;;;;;;;26.00;26.00;;;;;12.98;38.15;102477.19;4983312;28;45336;-70
2022/03/23 04:36:51;;;;;;;;;30.50;28.25;;;;;13.00;38.34;102478.94;4988588;28;46134;-70
2022/03/23 04:39:17;;;;;;;;;28.25;27.50;;;;;13.03;38.21;102493.19;4976700;28;46124;-69
2022/03/23 04:41:42;;;;;;;;;26.25;26.25;;;;;13.02;38.37;102486.06;4979855;28;45537;-69
2022/03/23 04:44:08;;;;;;;;;33.50;31.50;;;;;12.79;37.83;102455.09;4981542;28;45572;-70
2022/03/23 04:46:33;;;;;;;;;33.00;28.75;;;;;12.84;38.47;102470.25;4979744;28;45585;-69
2022/03/23 04:48:59;;;;;;;;;28.75;26.50;;;;;12.74;38.70;102451.59;4977892;28;47061;-69
2022/03/23 04:51:24;;;;;;;;;25.25;24.00;;;;;12.87;38.29;102479.13;4979404;28;45406;-70
2022/03/23 04:53:49;;;;;;;;;31.00;30.00;;;;;12.70;38.89;102455.25;4982817;28;45450;-69
2022/03/23 04:56:15;;;;;;;;;30.75;27.00;;;;;12.83;38.81;102490.81;4982414;28;45553;-70
2022/03/23 04:58:42;;;;;;;;;28.25;27.25;;;;;12.61;38.74;102455.34;4977673;28;45497;-69
2022/03/23 05:01:08;;;;;;;;;29.75;26.00;;;;;12.66;38.86;102464.22;4962868;28;45848;-69
2022/03/23 05:03:34;;;;;;;;;31.00;30.25;;;;;12.51;38.52;102446.59;4982228;28;45403;-69
2022/03/23 05:06:00;;;;;;;;;28.75;28.00;;;;;12.63;38.77;102466.97;4982571;28;45502;-69
2022/03/23 05:08:25;;;;;;;;;26.25;25.00;;;;;12.80;38.78;102498.88;4977133;28;46496;-69
2022/03/23 05:10:51;;;;;;;;;29.75;28.75;;;;;12.78;38.77;102501.59;4964167;28;45363;-69
2022/03/23 05:13:17;;;;;;;;;30.00;24.50;;;;;12.68;38.76;102488.31;4977592;28;45519;-70
2022/03/23 05:15:43;;;;;;;;;27.00;24.25;;;;;12.54;38.47;102459.91;4982258;28;45350;-69
2022/03/23 05:18:08;;;;;;;;;31.50;26.50;;;;;12.44;38.79;102455.59;4979764;28;45617;-69
2022/03/23 05:20:34;;;;;;;;;25.50;24.75;;;;;12.69;39.01;102498.13;4982096;28;45411;-69
2022/03/23 05:23:00;;;;;;;;;28.75;26.75;;;;;12.51;38.60;102472.47;4982445;28;45308;-69
2022/03/23 05:25:25;;;;;;;;;27.00;25.00;;;;;12.66;38.84;102508.88;4982413;28;45488;-70
2022/03/23 05:27:51;;;;;;;;;25.75;25.75;;;;;12.34;38.98;102461.97;4967640;28;47573;-69
2022/03/23 05:30:16;;;;;;;;;29.75;28.25;;;;;12.37;39.12;102475.31;4966810;28;45613;-69
2022/03/23 05:32:42;;;;;;;;;30.25;28.00;;;;;12.56;38.70;102505.44;4995095;28;45465;-70
2022/03/23 05:35:08;;;;;;;;;24.75;19.25;;;;;12.56;39.22;102514.38;4980369;28;45544;-69
2022/03/23 05:37:34;;;;;;;;;34.00;29.00;;;;;12.56;38.86;102513.47;4979108;28;47156;-69
2022/03/23 05:40:03;;;;;;;;;32.50;30.25;;;;;12.37;39.02;102484.22;4967643;28;46063;-70
2022/03/23 05:42:29;;;;;;;;;32.25;29.00;;;;;12.49;39.11;102503.75;4975790;28;45590;-69
2022/03/23 05:44:54;;;;;;;;;37.00;32.75;;;;;12.43;39.46;102499.38;4976639;28;45717;-69
2022/03/23 05:47:20;;;;;;;;;30.50;26.50;;;;;12.25;39.60;102476.34;4980499;28;46726;-69
2022/03/23 05:49:46;;;;;;;;;29.50;28.75;;;;;12.44;39.55;102517.19;4994470;28;45370;-69
2022/03/23 05:52:11;;;;;;;;;32.50;29.75;;;;;12.43;39.12;102512.75;4971268;28;45799;-69
2022/03/23 05:54:37;;;;;;;;;28.00;28.00;;;;;12.30;39.61;102492.38;4975822;28;46085;-69
2022/03/23 05:57:03;;;;;;;;;38.25;32.50;;;;;12.39;39.80;102506.53;4981501;28;45305;-69
2022/03/23 05:59:30;;;;;;;;;35.25;32.00;;;;;12.37;39.81;102515.50;4969695;28;45313;-69
2022/03/23 06:01:57;;;;;;;;;29.75;29.75;;;;;12.26;40.06;102490.63;4979373;28;45439;-69
2022/03/23 06:04:22;;;;;;;;;31.50;29.00;;;;;12.36;39.70;102513.72;4995599;28;45313;-69
2022/03/23 06:06:48;;;;;;;;;25.00;21.25;;;;;12.14;40.43;102489.84;4996092;28;47349;-69
2022/03/23 06:09:13;;;;;;;;;26.50;25.50;;;;;12.28;40.65;102516.50;4971749;28;45491;-69
2022/03/23 06:11:39;;;;;;;;;31.00;28.00;;;;;12.18;39.91;102509.47;4979154;28;45351;-69
2022/03/23 06:14:04;;;;;;;;;29.00;27.75;;;;;11.92;39.73;102477.63;4993109;28;46052;-69
2022/03/23 06:16:30;;;;;;;;;34.25;31.00;;;;;12.08;39.73;102510.44;4977492;28;46015;-69
2022/03/23 06:18:55;;;;;;;;;29.25;27.50;;;;;12.09;40.09;102505.06;4981248;28;45431;-70
2022/03/23 06:21:21;;;;;;;;;38.50;33.00;;;;;12.18;39.75;102525.53;4979865;28;45363;-69
2022/03/23 06:23:47;;;;;;;;;34.50;33.00;;;;;12.05;39.89;102512.25;4981222;28;45266;-69
2022/03/23 06:26:12;;;;;;;;;40.25;36.50;;;;;12.30;39.61;102552.16;4979586;28;46515;-69
2022/03/23 06:28:37;;;;;;;;;35.50;34.00;;;;;12.25;39.43;102561.16;4980437;28;45403;-69
2022/03/23 06:31:03;;;;;;;;;38.50;32.50;;;;;11.96;39.93;102517.72;4979149;28;45244;-69
2022/03/23 06:33:28;;;;;;;;;39.00;33.25;;;;;12.14;39.96;102550.53;4979749;28;46004;-69
2022/03/23 06:35:54;;;;;;;;;38.00;33.75;;;;;12.15;40.08;102547.84;4976467;28;47602;-69
2022/03/23 06:38:20;;;;;;;;;41.00;33.50;;;;;12.00;39.95;102521.25;4978199;28;45322;-69
2022/03/23 06:40:45;;;;;;;;;34.00;31.00;;;;;12.04;39.88;102518.53;4969455;28;45836;-70
2022/03/23 06:43:11;;;;;;;;;36.00;31.00;;;;;12.21;39.73;102547.81;4978964;28;45548;-70
2022/03/23 06:45:40;;;;;;;;;36.00;32.75;;;;;12.04;39.68;102523.88;4979291;28;46881;-69
2022/03/23 06:48:06;;;;;;;;;35.25;33.25;;;;;12.34;39.94;102575.31;4979241;28;45379;-68
2022/03/23 06:50:32;;;;;;;;;34.50;33.50;;;;;12.16;39.76;102544.28;4977625;28;45296;-68
2022/03/23 06:52:57;;;;;;;;;34.00;28.75;;;;;12.03;39.86;102537.28;4990688;28;45668;-69
2022/03/23 06:55:23;;;;;;;;;37.00;33.00;;;;;12.24;39.77;102565.59;4976652;28;45344;-69
2022/03/23 06:57:48;;;;;;;;;30.25;30.00;;;;;12.19;39.91;102564.75;4976393;28;45393;-69
2022/03/23 07:00:14;;;;;;;;;35.50;32.75;;;;;11.99;40.29;102541.75;4973242;28;45811;-67
2022/03/23 07:02:43;;;;;;;;;36.00;33.25;;;;;12.29;40.01;102592.34;4976446;28;45364;-67
2022/03/23 07:05:11;;;;;;;;;36.25;33.00;;;;;12.19;39.92;102578.16;4971322;28;45955;-67
2022/03/23 07:07:37;;;;;;;;;33.75;30.00;;;;;12.23;39.60;102586.16;4976104;28;45318;-67
2022/03/23 07:10:04;;;;;;;;;35.50;32.00;;;;;12.25;39.61;102587.94;4972794;28;45312;-67
2022/03/23 07:12:30;;;;;;;;;23.50;22.25;;;;;12.24;39.96;102589.69;4986595;28;45911;-68
2022/03/23 07:14:55;;;;;;;;;29.75;27.75;;;;;11.78;39.50;102517.84;4970548;28;47059;-67
2022/03/23 07:17:21;;;;;;;;;34.50;32.50;;;;;11.92;39.44;102542.72;4976181;28;45431;-68
2022/03/23 07:19:47;;;;;;;;;31.75;30.25;;;;;12.01;39.72;102549.75;4977279;28;45357;-66
2022/03/23 07:22:14;;;;;;;;;22.75;22.75;;;;;12.12;39.23;102577.31;4980231;28;45443;-66
2022/03/23 07:24:39;;;;;;;;;34.25;30.00;;;;;11.95;38.89;102544.50;4973568;28;47223;-66
2022/03/23 07:27:04;;;;;;;;;29.25;28.75;;;;;11.98;39.27;102544.47;4971865;28;45459;-66
2022/03/23 07:29:30;;;;;;;;;30.00;27.00;;;;;12.02;39.30;102556.91;4972123;28;46092;-66
2022/03/23 07:31:55;;;;;;;;;27.00;26.00;;;;;12.02;39.47;102559.59;4974575;28;45379;-65
2022/03/23 07:34:21;;;;;;;;;32.25;30.00;;;;;12.25;39.56;102602.19;4978814;28;45802;-66
2022/03/23 07:36:50;;;;;;;;;32.75;32.25;;;;;12.16;39.53;102591.56;4970531;28;45381;-65
2022/03/23 07:39:20;;;;;;;;;35.25;33.25;;;;;12.03;39.60;102572.06;4978712;28;45534;-65
2022/03/23 07:41:52;;;;;;;;;31.00;29.25;;;;;12.25;39.42;102602.19;4970993;28;45218;-65
2022/03/23 07:44:18;;;;;;;;;28.50;28.25;;;;;12.17;39.48;102588.88;4984427;28;46276;-66
2022/03/23 07:46:44;;;;;;;;;30.00;30.00;;;;;12.29;39.56;102603.94;4981695;28;45537;-66
2022/03/23 07:49:10;;;;;;;;;36.50;31.00;;;;;12.07;39.67;102563.09;4974575;28;45435;-66
2022/03/23 07:51:35;;;;;;;;;31.25;30.00;;;;;12.36;39.16;102612.78;4979449;28;45411;-66
2022/03/23 07:54:01;;;;;;;;;30.00;26.00;;;;;12.35;39.37;102611.91;4987011;28;46978;-66
2022/03/23 07:56:26;;;;;;;;;38.00;30.00;;;;;12.31;39.12;102601.25;4978948;28;45439;-66
2022/03/23 07:58:52;;;;;;;;;36.00;29.00;;;;;12.34;39.46;102611.94;4981133;28;45371;-66
2022/03/23 08:01:17;;;;;;;;;33.25;31.00;;;;;12.42;39.00;102618.97;4983682;28;45503;-66
2022/03/23 08:03:43;;;;;;;;;34.25;30.00;;;;;12.49;38.99;102632.31;4986781;28;46322;-66
2022/03/23 08:06:08;;;;;;;;;33.50;29.50;;;;;12.51;39.12;102633.19;4977133;28;45326;-66
2022/03/23 08:08:33;;;;;;;;;37.75;34.50;;;;;12.54;39.16;102630.47;4972683;28;45390;-66
2022/03/23 08:10:59;;;;;;;;;39.75;33.50;;;;;12.56;39.07;102631.34;4977928;28;45352;-67
2022/03/23 08:13:24;;;;;;;;;29.50;29.50;;;;;12.52;38.72;102632.28;4982319;28;46185;-66
2022/03/23 08:15:49;;;;;;;;;38.75;35.00;;;;;12.51;38.88;102628.72;4978351;28;45500;-66
2022/03/23 08:18:17;;;;;;;;;32.75;30.25;;;;;12.56;39.03;102637.59;4986523;28;45715;-66
2022/03/23 08:20:43;;;;;;;;;30.75;27.75;;;;;12.55;38.41;102633.13;4978918;28;45464;-66
2022/03/23 08:23:10;;;;;;;;;36.00;34.00;;;;;12.52;38.81;102632.28;4974323;28;45559;-65
2022/03/23 08:25:41;;;;;;;;;38.00;35.50;;;;;12.56;38.82;102640.28;4975943;28;45909;-62
2022/03/23 08:28:07;;;;;;;;;37.25;32.25;;;;;12.57;38.64;102642.03;4979010;28;45340;-66
2022/03/23 08:30:33;;;;;;;;;31.25;30.75;;;;;12.57;38.56;102636.69;4970307;28;45629;-67
2022/03/23 08:32:59;;;;;;;;;42.00;35.25;;;;;12.62;38.89;102633.09;4981817;28;47253;-67
2022/03/23 08:35:24;;;;;;;;;35.75;32.75;;;;;12.62;38.45;102631.28;4976017;28;45472;-67
2022/03/23 08:37:51;;;;;;;;;37.00;32.75;;;;;12.72;38.90;102643.66;4975886;28;45312;-67
2022/03/23 08:40:16;;;;;;;;;35.50;32.00;;;;;12.75;38.79;102643.63;4968335;28;45626;-67
2022/03/23 08:42:42;;;;;;;;;30.75;28.00;;;;;12.81;38.46;102640.00;4975428;28;47337;-67
2022/03/23 08:45:08;;;;;;;;;30.75;27.50;;;;;12.79;38.02;102633.78;4971867;28;45744;-66
2022/03/23 08:47:34;;;;;;;;;28.25;28.25;;;;;12.90;38.17;102645.25;4973512;28;45506;-67
2022/03/23 08:50:00;;;;;;;;;31.00;27.25;;;;;12.94;38.38;102638.06;4975390;28;45415;-67
2022/03/23 08:52:28;;;;;;;;;20.50;20.50;;;;;12.98;38.01;102646.06;4969440;28;47005;-67
2022/03/23 08:54:53;;;;;;;;;35.00;32.25;;;;;13.01;38.41;102625.47;4985875;28;45548;-67
2022/03/23 08:57:19;;;;;;;;;32.75;32.00;;;;;13.07;38.10;102631.66;4979358;28;45358;-67
2022/03/23 08:59:44;;;;;;;;;34.50;28.75;;;;;13.11;37.86;102635.16;4977151;28;45387;-66
2022/03/23 09:02:09;;;;;;;;;34.00;28.50;;;;;13.22;38.29;102649.34;4985411;28;47273;-67
2022/03/23 09:04:35;;;;;;;;;30.75;29.75;;;;;13.22;37.70;102635.94;4988254;28;45422;-67
2022/03/23 09:07:00;;;;;;;;;30.00;30.00;;;;;13.29;38.02;102637.59;4996324;28;45477;-67
2022/03/23 09:09:25;;;;;;;;;38.75;32.00;;;;;13.37;37.32;102628.63;4981193;28;45694;-67
2022/03/23 09:11:51;;;;;;;;;29.00;26.00;;;;;13.41;37.32;102627.66;4992323;28;45482;-69
2022/03/23 09:14:16;;;;;;;;;30.50;28.50;;;;;13.47;37.35;102625.78;4985385;28;45256;-70
2022/03/23 09:16:43;;;;;;;;;30.75;24.75;;;;;13.50;37.16;102623.06;4977580;28;45542;-70
2022/03/23 09:19:10;;;;;;;;;33.50;30.50;;;;;13.60;37.12;102633.63;4981251;28;45586;-69
2022/03/23 09:21:38;;;;;;;;;27.50;23.50;;;;;13.66;36.98;102625.50;4980038;28;45480;-69
2022/03/23 09:24:04;;;;;;;;;30.75;29.50;;;;;13.73;37.01;102629.84;4985225;28;45795;-70
2022/03/23 09:26:31;;;;;;;;;36.75;31.50;;;;;13.80;37.24;102634.25;4974104;28;45435;-70
2022/03/23 09:28:57;;;;;;;;;35.25;31.75;;;;;13.84;36.96;102627.03;4967511;28;45955;-70
2022/03/23 09:31:22;;;;;;;;;31.25;30.50;;;;;13.93;36.76;102625.97;4980579;28;46125;-70
2022/03/23 09:33:48;;;;;;;;;28.00;26.75;;;;;13.95;36.36;102624.16;4971983;28;45442;-70
2022/03/23 09:39:09;;;;;;;;;20.00;17.75;;;;;14.07;36.24;102630.22;4937539;28;45432;-71
2022/03/23 09:41:35;;;;;;;;;31.00;29.00;;;;;14.13;36.26;102629.19;4971603;28;47178;-71
2022/03/23 09:44:02;;;;;;;;;30.25;25.25;;;;;14.14;36.13;102620.25;4978404;28;45488;-71
2022/03/23 09:46:27;;;;;;;;;24.75;24.00;;;;;14.26;36.30;102632.56;4979536;28;45398;-71
2022/03/23 09:48:53;;;;;;;;;25.00;24.00;;;;;14.32;35.95;102639.66;4977329;28;45435;-71
2022/03/23 09:51:21;;;;;;;;;28.50;28.00;;;;;14.39;35.71;102634.13;4966656;28;45534;-71
2022/03/23 09:53:47;;;;;;;;;25.75;25.00;;;;;14.40;35.77;102630.53;4968604;28;45672;-70
2022/03/23 09:56:13;;;;;;;;;26.25;24.00;;;;;14.46;35.28;102637.59;4976013;28;45882;-70
2022/03/23 09:58:41;;;;;;;;;26.00;25.00;;;;;14.46;35.47;102627.72;4972443;28;45416;-71
2022/03/23 10:01:33;;;;;;;;;23.25;23.00;;;;;14.53;34.96;102632.97;4993687;28;48331;-70
2022/03/23 10:04:26;;;;;;;;;28.75;27.00;;;;;14.53;35.29;102630.28;4968843;28;45835;-70
2022/03/23 10:07:11;;;;;;;;;23.50;23.50;;;;;14.56;34.95;102628.44;4979600;28;45390;-70
2022/03/23 10:09:45;;;;;;;;;21.75;21.50;;;;;14.59;35.15;102631.09;4973833;28;45324;-71
2022/03/23 10:12:29;;;;;;;;;25.00;23.25;;;;;14.64;34.71;102631.03;4974156;28;46252;-71
2022/03/23 10:15:29;;;;;;;;;26.25;23.00;;;;;14.69;34.76;102626.44;4974103;28;46299;-71
2022/03/23 10:17:58;;;;;;;;;26.25;23.25;;;;;14.76;35.08;102628.06;4967060;28;45314;-71
2022/03/23 10:20:23;;;;;;;;;25.75;22.75;;;;;14.85;35.09;102627.03;4973385;28;45368;-71
2022/03/23 10:22:52;;;;;;;;;13.75;13.50;;;;;14.94;34.62;102620.56;4974804;28;47328;-71
2022/03/23 10:25:29;;;;;;;;;6.25;5.25;;;;;14.97;34.80;102625.88;4995054;28;45660;-70
2022/03/23 10:27:55;;;;;;;;;22.00;20.75;;;;;15.05;34.44;102621.25;4979962;28;45539;-71
2022/03/23 10:30:35;;;;;;;;;22.50;21.00;;;;;15.12;34.41;102617.50;4976965;28;45340;-72
2022/03/23 10:33:01;;;;;;;;;24.25;19.50;;;;;15.20;34.24;102620.00;4979713;28;45419;-71
2022/03/23 10:35:37;;;;;;;;;26.50;22.75;;;;;15.21;33.93;102607.44;4980200;28;45604;-71
2022/03/23 10:38:23;;;;;;;;;26.25;20.25;;;;;15.23;33.79;102606.47;4967340;28;45563;-70
2022/03/23 10:40:52;;;;;;;;;21.25;19.50;;;;;15.29;33.99;102600.09;4978426;28;45459;-73
2022/03/23 10:43:33;;;;;;;;;24.75;22.75;;;;;15.40;33.73;102607.91;4976906;28;47015;-71
2022/03/23 10:46:09;;;;;;;;;24.00;23.75;;;;;15.33;33.23;102591.03;4977513;28;45654;-71
2022/03/23 10:48:35;;;;;;;;;16.00;16.00;;;;;15.44;33.75;102610.50;4969968;28;45615;-69
2022/03/23 10:51:01;;;;;;;;;21.75;17.75;;;;;15.44;33.53;102588.97;4979268;28;45747;-70
2022/03/23 10:53:36;;;;;;;;;20.00;19.00;;;;;15.55;33.73;102591.41;4978214;28;46261;-70
2022/03/23 10:56:03;;;;;;;;;32.25;29.00;;;;;15.64;33.41;102593.88;4979628;28;45757;-71
2022/03/23 10:58:29;;;;;;;;;26.25;24.25;;;;;15.68;33.26;102586.63;4974037;28;45814;-70
2022/03/23 11:00:56;;;;;;;;;22.00;22.00;;;;;15.77;32.94;102596.31;4975785;28;45550;-69
2022/03/23 11:03:38;;;;;;;;;25.25;22.25;;;;;15.82;32.25;102592.59;4976465;28;45388;-71
2022/03/23 11:06:05;;;;;;;;;23.75;22.25;;;;;15.87;32.68;102582.59;4977334;28;45462;-71
2022/03/23 11:08:31;;;;;;;;;24.75;24.25;;;;;15.92;31.85;102579.75;4978843;28;45352;-71
2022/03/23 11:16:43;;;;;;;;;25.75;23.50;;;;;16.18;31.39;102581.78;4971076;28;45535;-71
2022/03/23 11:19:12;;;;;;;;;26.75;25.75;;;;;16.20;31.59;102579.91;4982591;28;44849;-70
2022/03/23 11:21:56;;;;;;;;;24.75;23.00;;;;;16.27;31.72;102578.84;4981268;28;45374;-70
2022/03/23 11:24:21;;;;;;;;;24.25;20.25;;;;;16.32;31.71;102569.75;4966851;28;45424;-70
2022/03/23 11:26:48;;;;;;;;;26.25;24.75;;;;;16.32;31.25;102550.88;4976700;28;45366;-70